Time;durP1;ratioP1;P1;durP2;ratioP2;P2;SDS_P1;SDS_P2;PMS_P1;PMS_P2;Temp;Humidity;BMP_temperature;BMP_pressure;BME280_temperature;BME280_humidity;BME280_pressure;Samples;Min_cycle;Max_cycle;Signal;HPM_P1;HPM_P2
2023/12/26 00:00:59;;;;;;;4.45;1.77;;;8.70;1.00;;;;;;7379000;19;20067;-71
2023/12/26 00:03:29;;;;;;;4.70;1.80;;;8.70;1.00;;;;;;7377900;19;20017;-71
2023/12/26 00:05:59;;;;;;;2.28;1.38;;;8.70;1.00;;;;;;7379070;19;20007;-71
2023/12/26 00:08:32;;;;;;;2.90;1.60;;;8.70;1.00;;;;;;7373469;19;20112;-71
2023/12/26 00:11:03;;;;;;;4.75;1.77;;;8.70;1.00;;;;;;7377267;19;20102;-70
2023/12/26 00:13:34;;;;;;;4.43;1.60;;;8.70;1.00;;;;;;7376894;19;20014;-70
2023/12/26 00:16:04;;;;;;;4.90;1.70;;;8.70;1.00;;;;;;7376738;19;21495;-70
2023/12/26 00:18:34;;;;;;;2.95;1.58;;;8.70;1.00;;;;;;7378147;19;20481;-73
2023/12/26 00:21:04;;;;;;;2.50;1.65;;;8.70;1.00;;;;;;7378362;19;20032;-71
2023/12/26 00:23:37;;;;;;;5.20;1.40;;;8.70;1.00;;;;;;7377701;19;20363;-71
2023/12/26 00:26:08;;;;;;;4.57;1.55;;;8.80;1.00;;;;;;7378463;19;20002;-70
2023/12/26 00:28:39;;;;;;;3.00;1.40;;;8.80;1.00;;;;;;7376625;19;20079;-70
2023/12/26 00:31:09;;;;;;;3.72;1.42;;;8.80;1.00;;;;;;7377836;19;20113;-71
2023/12/26 00:33:39;;;;;;;4.05;1.58;;;8.80;1.00;;;;;;7380045;19;20035;-70
2023/12/26 00:36:17;;;;;;;2.97;1.60;;;8.80;1.00;;;;;;7377306;19;20364;-70
2023/12/26 00:38:50;;;;;;;3.58;1.58;;;8.80;1.00;;;;;;7374975;19;20500;-71
2023/12/26 00:41:21;;;;;;;2.83;1.48;;;8.80;1.00;;;;;;7376121;19;20010;-70
2023/12/26 00:43:51;;;;;;;4.90;1.48;;;8.80;1.00;;;;;;7376356;19;20010;-70
2023/12/26 00:46:22;;;;;;;4.20;2.00;;;8.80;1.00;;;;;;7375899;19;20010;-70
2023/12/26 00:48:52;;;;;;;2.28;1.30;;;8.90;1.00;;;;;;7376204;19;20016;-70
2023/12/26 00:51:23;;;;;;;2.42;1.50;;;8.90;1.00;;;;;;7377323;19;20610;-71
2023/12/26 00:53:57;;;;;;;6.20;1.85;;;8.90;1.00;;;;;;7376790;19;20010;-71
2023/12/26 00:56:27;;;;;;;5.97;1.83;;;8.90;1.00;;;;;;7377638;19;20003;-71
2023/12/26 00:58:57;;;;;;;2.20;1.40;;;8.90;1.00;;;;;;7375326;19;20010;-71
2023/12/26 01:01:27;;;;;;;3.97;1.35;;;8.80;1.00;;;;;;7376325;19;20003;-71
2023/12/26 01:03:57;;;;;;;3.78;1.80;;;8.80;1.00;;;;;;7376165;19;20420;-71
2023/12/26 01:06:28;;;;;;;5.15;1.60;;;8.90;1.00;;;;;;7377418;19;20014;-70
2023/12/26 01:09:01;;;;;;;2.55;1.30;;;8.90;1.00;;;;;;7373595;19;20486;-70
2023/12/26 01:11:31;;;;;;;5.63;1.27;;;8.80;1.00;;;;;;7376195;19;20018;-70
2023/12/26 01:14:02;;;;;;;2.25;1.30;;;8.90;1.00;;;;;;7376531;19;20014;-71
2023/12/26 01:16:32;;;;;;;1.98;1.38;;;8.90;1.00;;;;;;7376811;19;20018;-71
2023/12/26 01:19:03;;;;;;;12.98;6.38;;;8.80;1.00;;;;;;7375582;19;20092;-71
2023/12/26 01:21:33;;;;;;;4.07;1.65;;;8.80;1.00;;;;;;7376160;19;20046;-71
2023/12/26 01:24:06;;;;;;;2.35;1.30;;;8.80;1.00;;;;;;7375271;19;20106;-70
2023/12/26 01:26:37;;;;;;;3.50;1.65;;;8.80;1.00;;;;;;7374412;19;20636;-71
2023/12/26 01:29:07;;;;;;;1.83;1.00;;;8.80;1.00;;;;;;7373374;19;20014;-71
2023/12/26 01:31:38;;;;;;;2.33;1.38;;;8.80;1.00;;;;;;7375647;19;20014;-70
2023/12/26 01:34:09;;;;;;;3.10;1.67;;;8.80;1.00;;;;;;7374018;19;20031;-71
2023/12/26 01:36:39;;;;;;;2.85;1.25;;;8.80;1.00;;;;;;7376321;19;20018;-71
2023/12/26 01:39:14;;;;;;;3.65;1.30;;;8.80;1.00;;;;;;7380386;19;20061;-71
2023/12/26 01:41:45;;;;;;;2.75;1.50;;;8.70;1.00;;;;;;7380416;19;20025;-71
2023/12/26 01:44:15;;;;;;;3.28;1.65;;;8.70;1.00;;;;;;7375840;19;20010;-70
2023/12/26 01:46:46;;;;;;;2.85;1.30;;;8.80;1.00;;;;;;7375983;19;20045;-71
2023/12/26 01:49:16;;;;;;;2.42;1.65;;;8.80;1.00;;;;;;7374308;19;20041;-72
2023/12/26 01:51:48;;;;;;;3.25;1.55;;;8.80;1.00;;;;;;7375106;19;20494;-70
2023/12/26 01:54:22;;;;;;;2.90;1.38;;;8.70;1.00;;;;;;7376238;19;19998;-70
2023/12/26 01:56:52;;;;;;;3.70;1.52;;;8.70;1.00;;;;;;7373631;19;20100;-70
2023/12/26 01:59:23;;;;;;;3.97;1.60;;;8.70;1.00;;;;;;7374684;19;20011;-70
2023/12/26 02:01:53;;;;;;;3.10;1.50;;;8.70;1.00;;;;;;7373988;19;20006;-70
2023/12/26 02:04:24;;;;;;;1.80;1.15;;;8.70;1.00;;;;;;7374155;19;20011;-71
2023/12/26 02:06:54;;;;;;;3.25;1.38;;;8.70;1.00;;;;;;7373958;19;20018;-70
2023/12/26 02:09:29;;;;;;;2.65;1.48;;;8.70;1.00;;;;;;7373494;19;20010;-70
2023/12/26 02:12:00;;;;;;;3.83;1.33;;;8.70;1.00;;;;;;7374460;19;20023;-70
2023/12/26 02:14:30;;;;;;;3.47;1.33;;;8.70;1.00;;;;;;7372805;19;20093;-70
2023/12/26 02:17:04;;;;;;;3.17;1.52;;;8.60;1.00;;;;;;7373910;19;20003;-71
2023/12/26 02:19:34;;;;;;;3.40;1.60;;;8.70;1.00;;;;;;7374392;19;20028;-70
2023/12/26 02:22:05;;;;;;;2.53;1.33;;;8.60;1.00;;;;;;7373439;19;20531;-70
2023/12/26 02:24:42;;;;;;;3.72;1.40;;;8.60;1.00;;;;;;7374094;19;20011;-70
2023/12/26 02:27:15;;;;;;;3.63;1.60;;;8.50;1.00;;;;;;7375099;19;20078;-70
2023/12/26 02:29:46;;;;;;;2.72;1.33;;;8.50;1.00;;;;;;7376072;19;20024;-69
2023/12/26 02:32:20;;;;;;;4.35;1.33;;;8.50;1.00;;;;;;7368125;19;20015;-70
2023/12/26 02:34:55;;;;;;;3.17;1.40;;;8.50;1.00;;;;;;7375002;19;20041;-70
2023/12/26 02:37:26;;;;;;;2.00;1.10;;;8.50;1.00;;;;;;7374362;19;20494;-70
2023/12/26 02:39:59;;;;;;;1.35;1.13;;;8.40;1.00;;;;;;7374634;19;20025;-70
2023/12/26 02:42:30;;;;;;;2.17;1.15;;;8.50;1.00;;;;;;7379983;19;20042;-70
2023/12/26 02:45:00;;;;;;;1.58;1.08;;;8.50;1.00;;;;;;7380563;19;20018;-70
2023/12/26 02:47:31;;;;;;;2.58;1.15;;;8.60;1.00;;;;;;7380666;19;20033;-70
2023/12/26 02:50:01;;;;;;;3.97;1.30;;;8.60;1.00;;;;;;7382249;19;20018;-70
2023/12/26 02:52:31;;;;;;;1.95;0.95;;;8.60;1.00;;;;;;7380460;19;20021;-69
2023/12/26 02:55:04;;;;;;;2.95;1.13;;;8.60;1.00;;;;;;7381589;19;20015;-70
2023/12/26 02:57:34;;;;;;;5.65;1.73;;;8.60;1.00;;;;;;7379029;19;20018;-72
2023/12/26 03:00:05;;;;;;;1.52;1.00;;;8.60;1.00;;;;;;7380844;19;20014;-70
2023/12/26 03:02:35;;;;;;;2.47;1.20;;;8.50;1.00;;;;;;7380920;19;20009;-70
2023/12/26 03:05:06;;;;;;;2.80;1.40;;;8.50;1.00;;;;;;7380625;19;20025;-70
2023/12/26 03:07:37;;;;;;;2.28;1.10;;;8.50;1.00;;;;;;7380405;19;20030;-70
2023/12/26 03:10:10;;;;;;;4.40;1.52;;;8.50;1.00;;;;;;7381101;19;20043;-70
2023/12/26 03:12:41;;;;;;;1.92;1.13;;;8.50;1.00;;;;;;7380956;19;20021;-70
2023/12/26 03:15:15;;;;;;;3.03;1.20;;;8.50;1.00;;;;;;7381055;19;20112;-70
2023/12/26 03:17:46;;;;;;;4.78;1.30;;;8.50;1.00;;;;;;7381711;19;20018;-69
2023/12/26 03:20:16;;;;;;;3.45;1.40;;;8.50;1.00;;;;;;7377620;19;20340;-69
2023/12/26 03:22:47;;;;;;;2.42;1.33;;;8.50;1.00;;;;;;7380725;19;20151;-70
2023/12/26 03:25:20;;;;;;;2.85;1.20;;;8.60;1.00;;;;;;7379773;19;20011;-70
2023/12/26 03:27:50;;;;;;;3.20;1.30;;;8.60;1.00;;;;;;7378018;19;20007;-70
2023/12/26 03:30:20;;;;;;;3.05;1.35;;;8.70;1.00;;;;;;7380134;19;20010;-70
2023/12/26 03:32:51;;;;;;;3.08;1.50;;;8.80;1.00;;;;;;7381554;19;20105;-70
2023/12/26 03:35:22;;;;;;;3.28;1.30;;;8.90;1.00;;;;;;7378870;19;20077;-70
2023/12/26 03:37:53;;;;;;;3.20;1.20;;;8.90;1.00;;;;;;7378989;19;20040;-69
2023/12/26 03:40:26;;;;;;;3.15;1.20;;;8.90;1.00;;;;;;7380102;19;20014;-70
2023/12/26 03:42:59;;;;;;;2.78;0.95;;;8.90;1.00;;;;;;7378889;19;20087;-71
2023/12/26 03:45:30;;;;;;;3.08;1.15;;;8.90;1.00;;;;;;7379701;19;20027;-69
2023/12/26 03:48:00;;;;;;;4.80;1.40;;;8.80;1.00;;;;;;7378417;19;20015;-70
2023/12/26 03:50:31;;;;;;;5.32;1.60;;;8.90;1.00;;;;;;7380163;19;20007;-69
2023/12/26 03:53:01;;;;;;;4.20;1.33;;;8.90;1.00;;;;;;7378763;19;20062;-70
2023/12/26 03:55:34;;;;;;;4.00;1.50;;;8.90;1.00;;;;;;7377116;19;20009;-70
2023/12/26 03:58:04;;;;;;;2.83;1.40;;;9.00;1.00;;;;;;7377299;19;20014;-69
2023/12/26 04:00:34;;;;;;;6.43;1.60;;;9.10;1.00;;;;;;7376114;19;20049;-70
2023/12/26 04:03:05;;;;;;;5.22;1.40;;;9.10;1.00;;;;;;7379151;19;20014;-71
2023/12/26 04:05:36;;;;;;;2.60;1.42;;;9.20;1.00;;;;;;7382836;19;20018;-70
2023/12/26 04:08:07;;;;;;;3.10;1.77;;;9.20;1.00;;;;;;7381068;19;20010;-71
2023/12/26 04:10:40;;;;;;;4.90;1.55;;;9.30;1.00;;;;;;7377713;19;20016;-70
2023/12/26 04:13:10;;;;;;;5.65;1.80;;;9.30;1.00;;;;;;7377644;19;20010;-70
2023/12/26 04:15:41;;;;;;;6.22;1.52;;;9.20;1.00;;;;;;7376824;19;20010;-70
2023/12/26 04:18:13;;;;;;;4.47;1.90;;;9.30;1.00;;;;;;7376856;19;20023;-71
2023/12/26 04:20:43;;;;;;;6.00;1.65;;;9.30;1.00;;;;;;7377681;19;20003;-70
2023/12/26 04:23:14;;;;;;;6.15;1.70;;;9.30;1.00;;;;;;7377743;19;20010;-71
2023/12/26 04:25:47;;;;;;;8.77;2.22;;;9.30;1.00;;;;;;7376675;19;20483;-71
2023/12/26 04:28:17;;;;;;;3.97;1.63;;;9.40;1.00;;;;;;7377752;19;20127;-70
2023/12/26 04:30:48;;;;;;;5.35;1.92;;;9.40;1.00;;;;;;7375797;19;20040;-70
2023/12/26 04:33:19;;;;;;;7.72;1.70;;;9.40;1.00;;;;;;7376496;19;20011;-70
2023/12/26 04:35:50;;;;;;;7.38;2.42;;;9.40;1.00;;;;;;7373145;19;20010;-70
2023/12/26 04:38:20;;;;;;;7.03;1.60;;;9.30;1.00;;;;;;7378123;19;20013;-70
2023/12/26 04:40:53;;;;;;;5.07;1.83;;;9.30;1.00;;;;;;7378275;19;20006;-70
2023/12/26 04:43:23;;;;;;;2.92;1.40;;;9.40;1.00;;;;;;7378864;19;20040;-70
2023/12/26 04:45:54;;;;;;;7.97;1.92;;;9.40;1.00;;;;;;7377970;19;20086;-70
2023/12/26 04:48:25;;;;;;;5.65;1.60;;;9.40;1.00;;;;;;7377490;19;20011;-70
2023/12/26 04:50:56;;;;;;;5.10;2.00;;;9.40;1.00;;;;;;7377624;19;20447;-70
2023/12/26 04:53:26;;;;;;;3.47;1.58;;;9.40;1.00;;;;;;7377198;19;20002;-71
2023/12/26 04:55:59;;;;;;;3.28;1.52;;;9.40;1.00;;;;;;7377792;19;20006;-71
2023/12/26 04:58:30;;;;;;;4.95;1.55;;;9.40;1.00;;;;;;7376324;19;20007;-70
2023/12/26 05:01:00;;;;;;;6.10;2.33;;;9.50;1.00;;;;;;7377709;19;20036;-70
2023/12/26 05:03:30;;;;;;;2.85;1.55;;;9.40;1.00;;;;;;7374333;19;20454;-70
2023/12/26 05:06:01;;;;;;;8.43;2.15;;;9.40;1.00;;;;;;7377196;19;20014;-71
2023/12/26 05:08:31;;;;;;;4.65;1.55;;;9.40;1.00;;;;;;7376737;19;20015;-70
2023/12/26 05:11:05;;;;;;;5.00;1.85;;;9.40;1.00;;;;;;7376272;19;20102;-70
2023/12/26 05:13:36;;;;;;;5.13;2.20;;;9.40;1.00;;;;;;7376677;19;20037;-71
2023/12/26 05:16:08;;;;;;;6.40;1.60;;;9.40;1.00;;;;;;7375592;19;20010;-71
2023/12/26 05:18:39;;;;;;;5.47;2.50;;;9.40;1.00;;;;;;7375465;19;20038;-70
2023/12/26 05:21:19;;;;;;;4.78;2.05;;;9.50;1.00;;;;;;7376354;19;20014;-69
2023/12/26 05:23:50;;;;;;;6.78;1.95;;;9.40;1.00;;;;;;7374025;19;20078;-70
2023/12/26 05:26:23;;;;;;;5.05;2.08;;;9.40;1.00;;;;;;7373675;19;20522;-70
2023/12/26 05:28:53;;;;;;;9.02;2.40;;;9.40;1.00;;;;;;7376388;19;20036;-70
2023/12/26 05:31:23;;;;;;;5.20;1.75;;;9.30;1.00;;;;;;7376945;19;20463;-71
2023/12/26 05:33:54;;;;;;;7.50;2.40;;;9.30;1.00;;;;;;7376055;19;20010;-70
2023/12/26 05:36:24;;;;;;;7.63;2.08;;;9.30;1.00;;;;;;7376842;19;20017;-70
2023/12/26 05:38:54;;;;;;;8.27;2.92;;;9.30;1.00;;;;;;7372082;19;20035;-70
2023/12/26 05:41:28;;;;;;;6.50;3.47;;;9.30;1.00;;;;;;7376392;19;20383;-70
2023/12/26 05:43:59;;;;;;;;;;;9.30;1.00;;;;;;7370981;19;20014;-70
2023/12/26 05:46:31;;;;;;;6.93;2.85;;;9.30;1.00;;;;;;7374988;19;19915;-71
2023/12/26 05:49:02;;;;;;;5.57;2.85;;;9.30;1.00;;;;;;7373861;19;20011;-70
2023/12/26 05:51:34;;;;;;;4.78;2.70;;;9.30;1.00;;;;;;7374785;19;20077;-70
2023/12/26 05:54:04;;;;;;;7.57;2.97;;;9.30;1.00;;;;;;7374684;19;20009;-70
2023/12/26 05:56:37;;;;;;;7.55;3.03;;;9.30;1.00;;;;;;7373839;19;20022;-69
2023/12/26 05:59:07;;;;;;;6.68;2.40;;;9.20;1.00;;;;;;7374599;19;20015;-69
2023/12/26 06:01:37;;;;;;;4.95;2.35;;;9.20;1.00;;;;;;7374376;19;20109;-70
2023/12/26 06:04:07;;;;;;;8.38;2.20;;;9.20;1.00;;;;;;7374084;19;20095;-70
2023/12/26 06:06:38;;;;;;;6.97;2.22;;;9.20;1.00;;;;;;7374045;19;20077;-70
2023/12/26 06:09:08;;;;;;;5.93;1.90;;;9.20;1.00;;;;;;7373471;19;20015;-70
2023/12/26 06:11:41;;;;;;;5.43;2.50;;;9.20;1.00;;;;;;7374073;19;20003;-70
2023/12/26 06:14:11;;;;;;;5.30;1.80;;;9.20;1.00;;;;;;7373793;19;20019;-70
2023/12/26 06:16:41;;;;;;;4.93;1.73;;;9.10;1.00;;;;;;7380258;19;20082;-71
2023/12/26 06:19:12;;;;;;;5.65;2.20;;;9.20;1.00;;;;;;7380831;19;20030;-70
2023/12/26 06:21:43;;;;;;;5.10;2.00;;;9.10;1.00;;;;;;7381527;19;20014;-70
2023/12/26 06:24:13;;;;;;;4.75;1.75;;;9.10;1.00;;;;;;7380545;19;20777;-70
2023/12/26 06:26:46;;;;;;;7.03;1.95;;;9.10;1.00;;;;;;7379904;19;20019;-70
2023/12/26 06:29:17;;;;;;;4.68;1.90;;;9.10;1.00;;;;;;7381228;19;20006;-70
2023/12/26 06:31:47;;;;;;;5.57;1.77;;;9.10;1.00;;;;;;7386520;19;20011;-71
2023/12/26 06:34:18;;;;;;;6.13;1.83;;;9.00;1.00;;;;;;7382210;19;20018;-71
2023/12/26 06:36:48;;;;;;;5.65;1.48;;;8.90;1.00;;;;;;7381222;19;20030;-71
2023/12/26 06:39:18;;;;;;;5.00;1.85;;;8.90;1.00;;;;;;7381764;19;20045;-71
2023/12/26 06:41:51;;;;;;;5.35;1.70;;;8.80;1.00;;;;;;7382029;19;20475;-70
2023/12/26 06:44:22;;;;;;;4.50;1.95;;;8.90;1.00;;;;;;7380567;19;20413;-70
2023/12/26 06:46:52;;;;;;;3.83;1.55;;;8.80;1.00;;;;;;7381273;19;20376;-71
2023/12/26 06:49:23;;;;;;;4.70;1.60;;;8.80;1.00;;;;;;7379199;19;20010;-71
2023/12/26 06:51:54;;;;;;;6.28;3.05;;;8.80;1.00;;;;;;7380158;19;20101;-71
2023/12/26 06:54:24;;;;;;;5.40;2.35;;;8.80;1.00;;;;;;7379516;19;20042;-71
2023/12/26 06:56:57;;;;;;;6.40;2.30;;;8.70;1.00;;;;;;7379548;19;20089;-70
2023/12/26 06:59:27;;;;;;;8.45;4.20;;;8.70;1.00;;;;;;7380133;19;20013;-71
2023/12/26 07:01:58;;;;;;;6.13;2.20;;;8.70;1.00;;;;;;7381717;19;20010;-70
2023/12/26 07:04:28;;;;;;;5.45;1.58;;;8.70;1.00;;;;;;7380200;19;20013;-71
2023/12/26 07:06:58;;;;;;;4.75;1.48;;;8.70;1.00;;;;;;7380101;19;20022;-71
2023/12/26 07:09:29;;;;;;;7.22;2.03;;;8.70;1.00;;;;;;7380517;19;20006;-70
2023/12/26 07:12:02;;;;;;;5.90;1.80;;;8.70;1.00;;;;;;7376467;19;20002;-70
2023/12/26 07:14:32;;;;;;;6.00;1.90;;;8.80;1.00;;;;;;7377712;19;20044;-71
2023/12/26 07:17:03;;;;;;;2.85;1.70;;;8.80;1.00;;;;;;7379331;19;20490;-70
2023/12/26 07:19:33;;;;;;;6.63;2.63;;;8.80;1.00;;;;;;7378735;19;20040;-71
2023/12/26 07:22:03;;;;;;;5.50;2.20;;;8.80;1.00;;;;;;7379415;19;20459;-70
2023/12/26 07:24:34;;;;;;;5.03;2.00;;;8.80;1.00;;;;;;7379473;19;20010;-71
2023/12/26 07:27:07;;;;;;;5.55;2.25;;;8.80;1.00;;;;;;7376651;19;20068;-71
2023/12/26 07:29:37;;;;;;;4.68;1.67;;;8.80;1.00;;;;;;7379820;19;20020;-70
2023/12/26 07:32:08;;;;;;;6.20;1.80;;;8.80;1.00;;;;;;7379898;19;20098;-70
2023/12/26 07:34:38;;;;;;;5.05;1.60;;;8.80;1.00;;;;;;7378981;19;20361;-70
2023/12/26 07:37:08;;;;;;;3.53;1.55;;;8.80;1.00;;;;;;7379129;19;20007;-70
2023/12/26 07:39:39;;;;;;;4.78;1.88;;;8.80;1.00;;;;;;7378658;19;20073;-71
2023/12/26 07:42:11;;;;;;;6.28;1.90;;;8.80;1.00;;;;;;7379003;19;20002;-70
2023/12/26 07:44:42;;;;;;;4.70;1.88;;;8.80;1.00;;;;;;7379054;19;20010;-70
2023/12/26 07:47:13;;;;;;;4.55;1.60;;;8.80;1.00;;;;;;7377533;19;20709;-71
2023/12/26 07:49:43;;;;;;;6.85;1.70;;;8.80;1.00;;;;;;7376439;19;20013;-70
2023/12/26 07:52:13;;;;;;;5.40;2.03;;;8.80;1.00;;;;;;7379843;19;20014;-70
2023/12/26 07:54:44;;;;;;;4.22;1.65;;;8.80;1.00;;;;;;7377251;19;20014;-70
2023/12/26 07:57:16;;;;;;;4.50;1.60;;;8.80;1.00;;;;;;7378395;19;20010;-70
2023/12/26 07:59:47;;;;;;;2.05;1.58;;;8.80;1.00;;;;;;7379345;19;20020;-70
2023/12/26 08:02:17;;;;;;;5.47;1.75;;;8.80;1.00;;;;;;7379934;19;20015;-70
2023/12/26 08:04:48;;;;;;;5.55;1.70;;;8.80;1.00;;;;;;7379689;19;20053;-71
2023/12/26 08:07:18;;;;;;;4.75;1.65;;;8.80;1.00;;;;;;7377836;19;20003;-70
2023/12/26 08:09:48;;;;;;;4.03;1.65;;;8.90;1.00;;;;;;7378626;19;20003;-70
2023/12/26 08:12:21;;;;;;;5.55;2.03;;;8.90;1.00;;;;;;7378991;19;20014;-70
2023/12/26 08:14:51;;;;;;;6.85;2.65;;;8.90;1.00;;;;;;7378684;19;20006;-70
2023/12/26 08:17:22;;;;;;;8.30;1.85;;;8.90;1.00;;;;;;7378746;19;22057;-71
2023/12/26 08:19:52;;;;;;;5.65;1.80;;;9.00;1.00;;;;;;7377366;19;20006;-70
2023/12/26 08:22:22;;;;;;;4.82;1.90;;;9.00;1.00;;;;;;7377914;19;20017;-70
2023/12/26 08:24:52;;;;;;;9.10;2.22;;;9.00;1.00;;;;;;7377010;19;20034;-71
2023/12/26 08:27:25;;;;;;;9.10;2.10;;;9.00;1.00;;;;;;7377003;19;20036;-70
2023/12/26 08:29:55;;;;;;;5.30;1.63;;;9.00;1.00;;;;;;7378709;19;20034;-70
2023/12/26 08:32:25;;;;;;;5.85;2.10;;;9.10;1.00;;;;;;7377861;19;20082;-70
2023/12/26 08:34:56;;;;;;;7.55;2.22;;;9.10;1.00;;;;;;7377389;19;20010;-70
2023/12/26 08:37:27;;;;;;;5.32;1.90;;;9.10;1.00;;;;;;7377583;19;20078;-70
2023/12/26 08:39:57;;;;;;;5.68;2.05;;;9.10;1.00;;;;;;7378657;19;20010;-70
2023/12/26 08:42:30;;;;;;;4.03;1.67;;;9.20;1.00;;;;;;7376855;19;20507;-71
2023/12/26 08:45:00;;;;;;;6.15;2.88;;;9.30;1.00;;;;;;7379365;19;20018;-71
2023/12/26 08:47:31;;;;;;;5.68;1.90;;;9.30;1.00;;;;;;7378125;19;20060;-70
2023/12/26 08:50:01;;;;;;;3.78;1.88;;;9.40;1.00;;;;;;7378421;19;20007;-70
2023/12/26 08:52:31;;;;;;;6.72;2.20;;;9.40;1.00;;;;;;7379587;19;20014;-71
2023/12/26 08:55:01;;;;;;;7.95;1.95;;;9.40;1.00;;;;;;7383065;19;20007;-71
2023/12/26 08:57:34;;;;;;;6.35;2.10;;;9.40;1.00;;;;;;7381802;19;20006;-70
2023/12/26 09:00:04;;;;;;;5.72;1.98;;;9.40;1.00;;;;;;7379747;19;20029;-70
2023/12/26 09:02:35;;;;;;;6.47;1.98;;;9.40;1.00;;;;;;7379066;19;20091;-70
2023/12/26 09:05:05;;;;;;;5.57;1.73;;;9.40;1.00;;;;;;7378789;19;20006;-71
2023/12/26 09:07:35;;;;;;;6.05;1.80;;;9.40;1.00;;;;;;7378964;19;20031;-71
2023/12/26 09:10:06;;;;;;;4.22;1.90;;;9.40;1.00;;;;;;7378720;19;20006;-73
2023/12/26 09:12:39;;;;;;;4.50;1.33;;;9.50;1.00;;;;;;7377614;19;20463;-71
2023/12/26 09:15:10;;;;;;;5.25;1.60;;;9.50;1.00;;;;;;7377377;19;20031;-70
2023/12/26 09:17:40;;;;;;;3.53;1.55;;;9.50;1.00;;;;;;7377061;19;20021;-71
2023/12/26 09:20:12;;;;;;;3.90;1.50;;;9.60;1.00;;;;;;7378406;19;20014;-70
2023/12/26 09:22:42;;;;;;;4.13;1.60;;;9.60;1.00;;;;;;7378257;19;20014;-70
2023/12/26 09:25:14;;;;;;;8.60;1.80;;;9.60;1.00;;;;;;7378289;19;20021;-71
2023/12/26 09:27:47;;;;;;;3.88;1.52;;;9.60;1.00;;;;;;7375937;19;20011;-70
2023/12/26 09:30:18;;;;;;;3.80;1.45;;;9.70;1.00;;;;;;7377810;19;20031;-70
2023/12/26 09:32:48;;;;;;;3.50;1.65;;;9.70;1.00;;;;;;7376578;19;20015;-70
2023/12/26 09:35:19;;;;;;;4.65;2.35;;;9.70;1.00;;;;;;7376182;19;20010;-71
2023/12/26 09:37:49;;;;;;;5.00;1.65;;;9.70;1.00;;;;;;7375533;19;20487;-70
2023/12/26 09:40:20;;;;;;;5.97;1.70;;;9.70;1.00;;;;;;7375329;19;20009;-70
2023/12/26 09:42:59;;;;;;;3.35;1.30;;;9.80;1.00;;;;;;7376473;19;20017;-70
2023/12/26 09:45:30;;;;;;;4.63;1.40;;;9.80;1.00;;;;;;7373793;19;20117;-71
2023/12/26 09:48:00;;;;;;;5.13;1.58;;;9.80;1.00;;;;;;7376000;19;20014;-71
2023/12/26 09:50:31;;;;;;;3.55;1.20;;;9.80;1.00;;;;;;7374183;19;20015;-71
2023/12/26 09:53:02;;;;;;;3.90;1.33;;;9.80;1.00;;;;;;7376826;19;20451;-70
2023/12/26 09:55:30;;;;;;;3.53;1.30;;;9.80;1.00;;;;;;7375201;19;20006;-71
2023/12/26 09:58:04;;;;;;;2.83;1.40;;;9.70;1.00;;;;;;7375789;19;20006;-71
2023/12/26 10:00:35;;;;;;;2.40;1.08;;;9.80;1.00;;;;;;7377362;19;20503;-71
2023/12/26 10:03:06;;;;;;;3.33;1.33;;;9.80;1.00;;;;;;7377843;19;20053;-71
2023/12/26 10:05:36;;;;;;;2.67;1.27;;;9.90;1.00;;;;;;7377358;19;20082;-70
2023/12/26 10:08:07;;;;;;;2.97;1.23;;;9.90;1.00;;;;;;7377404;19;20035;-70
2023/12/26 10:10:38;;;;;;;4.00;1.58;;;9.90;1.00;;;;;;7374792;19;20625;-71
2023/12/26 10:13:11;;;;;;;4.40;1.00;;;9.90;1.00;;;;;;7377207;19;20019;-70
2023/12/26 10:15:43;;;;;;;2.05;1.00;;;9.90;1.00;;;;;;7373888;19;20510;-70
2023/12/26 10:18:14;;;;;;;2.88;1.40;;;9.90;1.00;;;;;;7375778;19;20108;-71
2023/12/26 10:20:44;;;;;;;3.05;1.10;;;9.90;1.00;;;;;;7375200;19;20035;-70
2023/12/26 10:23:16;;;;;;;2.35;1.15;;;9.90;1.00;;;;;;7375521;19;20010;-70
2023/12/26 10:25:46;;;;;;;4.57;1.10;;;9.90;1.00;;;;;;7375039;19;20007;-70
2023/12/26 10:28:21;;;;;;;3.25;1.48;;;10.00;1.00;;;;;;7375164;19;20353;-70
2023/12/26 10:30:51;;;;;;;3.05;1.30;;;10.00;1.00;;;;;;7374115;19;20014;-70
2023/12/26 10:33:27;;;;;;;3.38;1.65;;;10.00;1.00;;;;;;7374682;19;20017;-70
2023/12/26 10:36:04;;;;;;;3.63;1.40;;;10.00;1.00;;;;;;7374082;19;20963;-71
2023/12/26 10:38:34;;;;;;;2.20;1.10;;;10.00;1.00;;;;;;7372771;19;20542;-70
2023/12/26 10:41:09;;;;;;;2.63;1.17;;;9.90;1.00;;;;;;7374286;19;20014;-70
2023/12/26 10:43:43;;;;;;;1.95;1.00;;;10.00;1.00;;;;;;7373020;19;20010;-71
2023/12/26 10:46:14;;;;;;;3.08;1.30;;;10.00;1.00;;;;;;7375746;19;20042;-70
2023/12/26 10:48:49;;;;;;;3.00;1.27;;;10.10;1.00;;;;;;7373566;19;20015;-71
2023/12/26 10:51:25;;;;;;;2.25;1.60;;;10.00;1.00;;;;;;7369761;19;20014;-70
2023/12/26 10:54:02;;;;;;;2.67;0.98;;;10.00;1.00;;;;;;7373830;19;20007;-71
2023/12/26 10:56:35;;;;;;;2.95;1.10;;;10.00;1.00;;;;;;7374061;19;20019;-70
2023/12/26 10:59:08;;;;;;;2.45;1.20;;;10.10;1.00;;;;;;7373396;19;20010;-71
2023/12/26 13:51:27;;;;;;;1.73;0.68;;;10.20;1.00;;;;;;6866349;19;2004813;-71
2023/12/26 13:54:28;;;;;;;1.23;0.50;;;10.20;1.00;;;;;;6766885;19;2004238;-70
2023/12/26 13:57:29;;;;;;;0.50;0.40;;;10.20;1.00;;;;;;6867449;19;2003764;-71
2023/12/26 14:00:29;;;;;;;2.35;0.50;;;10.20;1.00;;;;;;6868109;19;2004092;-70
2023/12/26 14:03:31;;;;;;;1.20;0.40;;;10.20;1.00;;;;;;6867829;19;2003910;-70
2023/12/26 14:06:32;;;;;;;2.47;1.27;;;10.30;1.00;;;;;;6762729;19;2004338;-72
2023/12/26 14:09:33;;;;;;;1.00;0.50;;;10.20;1.00;;;;;;7374295;19;20484;-70
2023/12/26 14:12:33;;;;;;;1.33;0.98;;;10.20;1.00;;;;;;7372212;19;20027;-70
2023/12/26 14:15:33;;;;;;;1.50;0.38;;;10.20;1.00;;;;;;7369153;19;20027;-70
2023/12/26 14:18:34;;;;;;;1.30;0.60;;;10.10;1.00;;;;;;7374187;19;20476;-69
2023/12/26 14:21:34;;;;;;;1.90;0.85;;;10.10;1.00;;;;;;7370982;19;20006;-71
2023/12/26 14:24:35;;;;;;;1.73;0.75;;;10.10;1.00;;;;;;7374572;19;20010;-70
2023/12/26 14:27:35;;;;;;;1.67;0.70;;;10.10;1.00;;;;;;7374053;19;20078;-71
2023/12/26 14:30:36;;;;;;;1.75;1.05;;;10.00;1.00;;;;;;7372287;19;20229;-71
2023/12/26 14:33:37;;;;;;;1.38;0.68;;;10.00;1.00;;;;;;7374450;19;20058;-71
2023/12/26 14:36:37;;;;;;;4.93;1.00;;;10.00;1.00;;;;;;7375153;19;20041;-70
2023/12/26 14:39:37;;;;;;;1.58;0.90;;;9.90;1.00;;;;;;7376933;19;20467;-71
2023/12/26 14:42:37;;;;;;;4.07;1.42;;;9.90;1.00;;;;;;7381585;19;20003;-71
2023/12/26 14:45:38;;;;;;;2.30;0.90;;;9.90;1.00;;;;;;7380007;19;20002;-71
2023/12/26 14:48:39;;;;;;;2.25;1.08;;;9.90;1.00;;;;;;7379426;19;20014;-70
2023/12/26 14:51:40;;;;;;;1.10;0.80;;;9.90;1.00;;;;;;7378732;19;20007;-71
2023/12/26 14:54:40;;;;;;;3.25;0.90;;;9.90;1.00;;;;;;7376038;19;20617;-71
2023/12/26 14:57:40;;;;;;;1.85;0.80;;;9.80;1.00;;;;;;7379934;19;20035;-71
2023/12/26 15:00:43;;;;;;;4.10;0.60;;;9.80;1.00;;;;;;7375981;19;20021;-71
2023/12/26 15:03:32;;;;;;;1.30;0.88;;;9.80;1.00;;;;;;7374236;19;20006;-70
2023/12/26 15:06:08;;;;;;;1.63;1.23;;;9.80;1.00;;;;;;7381786;19;20011;-72
2023/12/26 15:08:38;;;;;;;2.60;1.10;;;9.70;1.00;;;;;;7377737;19;20471;-71
2023/12/26 15:11:16;;;;;;;2.00;1.25;;;9.70;1.00;;;;;;7380707;19;20119;-70
2023/12/26 15:13:46;;;;;;;1.60;0.80;;;9.70;1.00;;;;;;7379573;19;20018;-70
2023/12/26 15:16:33;;;;;;;1.48;1.20;;;9.70;1.00;;;;;;7379242;19;20037;-71
2023/12/26 15:19:06;;;;;;;3.63;1.63;;;9.60;1.00;;;;;;7377282;19;20057;-70
2023/12/26 15:21:42;;;;;;;1.70;1.23;;;9.60;1.00;;;;;;7380197;19;20010;-71
2023/12/26 15:24:13;;;;;;;6.47;3.88;;;9.60;1.00;;;;;;7377013;19;20025;-70
2023/12/26 15:26:44;;;;;;;7.63;4.43;;;9.60;1.00;;;;;;7379647;19;20078;-70
2023/12/26 15:29:15;;;;;;;3.10;2.17;;;9.50;1.00;;;;;;7378542;19;20158;-71
2023/12/26 15:31:48;;;;;;;2.33;1.60;;;9.50;1.00;;;;;;7378489;19;20006;-71
2023/12/26 15:34:21;;;;;;;1.80;1.20;;;9.50;1.00;;;;;;7378771;19;20015;-71
2023/12/26 15:36:51;;;;;;;1.30;1.00;;;9.50;1.00;;;;;;7379467;19;20007;-70
2023/12/26 15:39:21;;;;;;;1.58;1.15;;;9.50;1.00;;;;;;7377750;19;20003;-69
2023/12/26 15:41:54;;;;;;;1.25;0.85;;;9.50;1.00;;;;;;7378834;19;20018;-70
2023/12/26 15:44:24;;;;;;;1.35;0.70;;;9.50;1.00;;;;;;7378319;19;20063;-70
2023/12/26 15:46:54;;;;;;;2.13;0.98;;;9.50;1.00;;;;;;7377626;19;20011;-69
2023/12/26 15:49:27;;;;;;;3.17;0.90;;;9.50;1.00;;;;;;7374074;19;20018;-71
2023/12/26 15:51:57;;;;;;;2.53;1.05;;;9.40;1.00;;;;;;7377914;19;20089;-70
2023/12/26 15:54:28;;;;;;;1.92;0.90;;;9.40;1.00;;;;;;7379453;19;20097;-70
2023/12/26 15:56:58;;;;;;;0.80;0.75;;;9.30;1.00;;;;;;7380631;19;20007;-71
2023/12/26 15:59:28;;;;;;;2.55;0.70;;;9.30;1.00;;;;;;7381413;19;20010;-70
2023/12/26 16:01:58;;;;;;;2.90;1.20;;;9.20;1.00;;;;;;7381461;19;20003;-70
2023/12/26 16:04:31;;;;;;;2.22;0.85;;;9.20;1.00;;;;;;7378839;19;22829;-70
2023/12/26 16:07:02;;;;;;;2.63;1.00;;;9.00;1.00;;;;;;7379772;19;20014;-71
2023/12/26 16:09:33;;;;;;;2.17;1.00;;;9.00;1.00;;;;;;7378677;19;20007;-70
2023/12/26 16:12:03;;;;;;;2.35;1.30;;;9.00;1.00;;;;;;7383747;19;20018;-70
2023/12/26 16:14:34;;;;;;;2.83;1.30;;;8.90;1.00;;;;;;7381059;19;20082;-70
2023/12/26 16:17:04;;;;;;;2.42;1.23;;;8.90;1.00;;;;;;7379598;19;20123;-70
2023/12/26 16:19:40;;;;;;;3.45;1.58;;;8.90;1.00;;;;;;7379895;19;20364;-70
2023/12/26 16:22:11;;;;;;;5.10;1.40;;;8.90;1.00;;;;;;7377158;19;20453;-71
2023/12/26 16:24:41;;;;;;;1.95;1.00;;;8.80;1.00;;;;;;7379343;19;20019;-72
2023/12/26 16:27:11;;;;;;;2.63;1.20;;;8.90;1.00;;;;;;7381041;19;20041;-71
2023/12/26 16:29:42;;;;;;;1.20;0.98;;;8.90;1.00;;;;;;7378956;19;20015;-70